Puerto Banus, Marbella

>

This is an optional block (switch it off / on) in the settings - file ($SITE['banners'] = false;)

You can display ads, any other important text or photo’s using text / html or PHP code.

You can place one or more at the top and or bottom and it can all be different for content / size .



Meteosat more information blitzortung!


Radar lluvias  rain snow radar


Visita nuestra red de sitios de meteo:

Documentation for the template used

MeteoibericaRed estaciones Meteorologicas

MeteoclimaticRed estaciones Meteorologicas



Sin Advertencias climatologicas .En este momento tenemos Nivel Verde.    No hay Alarmas

Pagina Historial Weather Underground texto

Diario Resumen January 5, 2018 Unidades:  Tanto    impérial   Métrico
« Anterior Dia
Siguiente Dia »
Diario Semana Mensual Anual Personalizada
  Maxima: Minima: Media:
Temperatura: 65.7 °F /  18.7 °C 50.4 °F /  10.2 °C 57.7 °F /  14.3 °C
Punto de rocío: 53.4 °F /  11.9 °C 44.6 °F /  7.0 °C 49.3 °F /  9.6 °C
Humedad: 82 % 54 % 74 %
Velocidad del Viento: 26.5 mph /  42.6 km/h - 10.6 mph /  17 km/h
Ráfagas de viento: 29 mph /  46.7 km/h - -
Viento:- - WNW
Pression baro: 30.2 in /  1022.6 hPa 29.7 in /  1007.3 hPa -
Précipitaciones: 0 in /  0.0 mm    
Historical Graphs
 
 
Datos de tabla para January 5, 2018
Tiempo Temperatura Punto de rocío Pression baro Viento Velocidad del Viento Ráfagas de viento Humedad Las precipitaciones Rate ( Hora )
00:00 55.9 °F /  13.3 °C 49.6 °F /  9.8 °C 30.2 in /  1022.6 hPa NNW 5.8 mph /  9.3 km/h 5.8 mph /  9.3 km/h 79 % 0 in /  0.0 mm
00:02 56.1 °F /  13.4 °C 49.6 °F /  9.8 °C 30.2 in /  1022.6 hPa NNW 5.8 mph /  9.3 km/h 5.8 mph /  9.3 km/h 79 % 0 in /  0.0 mm
00:07 56.1 °F /  13.4 °C 49.6 °F /  9.8 °C 30.2 in /  1022.6 hPa NNW 5 mph /  8.0 km/h 5 mph /  8.0 km/h 79 % 0 in /  0.0 mm
00:08 56.1 °F /  13.4 °C 49.6 °F /  9.8 °C 30.2 in /  1022.6 hPa NNW 5 mph /  8.0 km/h 5 mph /  8.0 km/h 79 % 0 in /  0.0 mm
00:13 55.9 °F /  13.3 °C 49.6 °F /  9.8 °C 30.2 in /  1022.6 hPa North 5.8 mph /  9.3 km/h 5.8 mph /  9.3 km/h 79 % 0 in /  0.0 mm
00:15 55.9 °F /  13.3 °C 49.6 °F /  9.8 °C 30.2 in /  1022.6 hPa North 4.6 mph /  7.4 km/h 4.6 mph /  7.4 km/h 79 % 0 in /  0.0 mm
00:17 55.9 °F /  13.3 °C 49.6 °F /  9.8 °C 30.2 in /  1022.6 hPa North 4.6 mph /  7.4 km/h 4.6 mph /  7.4 km/h 79 % 0 in /  0.0 mm
00:22 55.9 °F /  13.3 °C 49.6 °F /  9.8 °C 30.2 in /  1022.6 hPa NNW 6.9 mph /  11.1 km/h 6.9 mph /  11.1 km/h 79 % 0 in /  0.0 mm
00:27 56.1 °F /  13.4 °C 49.8 °F /  9.9 °C 30.2 in /  1022.2 hPa NNW 4.6 mph /  7.4 km/h 4.6 mph /  7.4 km/h 79 % 0 in /  0.0 mm
00:32 56.1 °F /  13.4 °C 49.8 °F /  9.9 °C 30.2 in /  1022.2 hPa North 5 mph /  8.0 km/h 5 mph /  8.0 km/h 79 % 0 in /  0.0 mm
00:34 56.1 °F /  13.4 °C 49.8 °F /  9.9 °C 30.2 in /  1022.2 hPa North 3.5 mph /  5.6 km/h 3.5 mph /  5.6 km/h 79 % 0 in /  0.0 mm
00:39 55.9 °F /  13.3 °C 49.6 °F /  9.8 °C 30.2 in /  1022.2 hPa NNW 4.6 mph /  7.4 km/h 4.6 mph /  7.4 km/h 79 % 0 in /  0.0 mm
00:40 55.9 °F /  13.3 °C 49.6 °F /  9.8 °C 30.2 in /  1022.2 hPa NNW 4.6 mph /  7.4 km/h 4.6 mph /  7.4 km/h 79 % 0 in /  0.0 mm
00:45 55.9 °F /  13.3 °C 49.6 °F /  9.8 °C 30.2 in /  1022.2 hPa NNW 3.5 mph /  5.6 km/h 3.5 mph /  5.6 km/h 79 % 0 in /  0.0 mm
00:47 55.9 °F /  13.3 °C 49.6 °F /  9.8 °C 30.2 in /  1021.9 hPa NNW 3.5 mph /  5.6 km/h 3.5 mph /  5.6 km/h 79 % 0 in /  0.0 mm
00:54 56.1 °F /  13.4 °C 49.6 °F /  9.8 °C 30.2 in /  1021.9 hPa NNW 3.5 mph /  5.6 km/h 3.5 mph /  5.6 km/h 79 % 0 in /  0.0 mm
00:59 56.1 °F /  13.4 °C 49.6 °F /  9.8 °C 30.2 in /  1021.9 hPa NNW 3.5 mph /  5.6 km/h 3.5 mph /  5.6 km/h 79 % 0 in /  0.0 mm
01:02 56.1 °F /  13.4 °C 49.6 °F /  9.8 °C 30.2 in /  1021.9 hPa NNW 4.6 mph /  7.4 km/h 4.6 mph /  7.4 km/h 79 % 0 in /  0.0 mm
01:07 55.9 °F /  13.3 °C 49.6 °F /  9.8 °C 30.2 in /  1021.9 hPa NNW 3.5 mph /  5.6 km/h 3.5 mph /  5.6 km/h 79 % 0 in /  0.0 mm
01:12 55.9 °F /  13.3 °C 49.3 °F /  9.6 °C 30.2 in /  1021.6 hPa NNW 3.5 mph /  5.6 km/h 3.5 mph /  5.6 km/h 78 % 0 in /  0.0 mm
01:14 55.9 °F /  13.3 °C 49.1 °F /  9.5 °C 30.2 in /  1021.6 hPa NNW 4.6 mph /  7.4 km/h 4.6 mph /  7.4 km/h 78 % 0 in /  0.0 mm
01:16 55.9 °F /  13.3 °C 49.1 °F /  9.5 °C 30.2 in /  1021.6 hPa NNW 5 mph /  8.0 km/h 5 mph /  8.0 km/h 78 % 0 in /  0.0 mm
01:22 55.8 °F /  13.2 °C 48.9 °F /  9.4 °C 30.2 in /  1021.6 hPa NNW 5 mph /  8.0 km/h 5 mph /  8.0 km/h 78 % 0 in /  0.0 mm
01:26 55.6 °F /  13.1 °C 49.3 °F /  9.6 °C 30.2 in /  1021.6 hPa North 5 mph /  8.0 km/h 5 mph /  8.0 km/h 79 % 0 in /  0.0 mm
01:31 55.4 °F /  13.0 °C 48.9 °F /  9.4 °C 30.2 in /  1021.2 hPa North 3.5 mph /  5.6 km/h 3.8 mph /  6.1 km/h 79 % 0 in /  0.0 mm
01:33 55.2 °F /  12.9 °C 48.9 °F /  9.4 °C 30.2 in /  1021.2 hPa North 5 mph /  8.0 km/h 5 mph /  8.0 km/h 79 % 0 in /  0.0 mm
01:36 55.2 °F /  12.9 °C 48.7 °F /  9.3 °C 30.2 in /  1021.2 hPa North 5 mph /  8.0 km/h 5 mph /  8.0 km/h 79 % 0 in /  0.0 mm
01:40 55 °F /  12.8 °C 48.9 °F /  9.4 °C 30.2 in /  1021.2 hPa North 5.8 mph /  9.3 km/h 5.8 mph /  9.3 km/h 80 % 0 in /  0.0 mm
01:45 55 °F /  12.8 °C 48.9 °F /  9.4 °C 30.2 in /  1021.2 hPa North 5.8 mph /  9.3 km/h 5.8 mph /  9.3 km/h 80 % 0 in /  0.0 mm
01:47 54.9 °F /  12.7 °C 48.7 °F /  9.3 °C 30.2 in /  1020.9 hPa North 4.6 mph /  7.4 km/h 4.6 mph /  7.4 km/h 80 % 0 in /  0.0 mm
01:52 54.9 °F /  12.7 °C 48.7 °F /  9.3 °C 30.2 in /  1020.9 hPa North 6 mph /  9.7 km/h 6 mph /  9.7 km/h 80 % 0 in /  0.0 mm
01:55 54.7 °F /  12.6 °C 48.6 °F /  9.2 °C 30.1 in /  1020.5 hPa North 5.8 mph /  9.3 km/h 5.8 mph /  9.3 km/h 80 % 0 in /  0.0 mm
01:58 54.7 °F /  12.6 °C 48.6 °F /  9.2 °C 30.1 in /  1020.5 hPa North 5.8 mph /  9.3 km/h 5.8 mph /  9.3 km/h 80 % 0 in /  0.0 mm
02:03 54.7 °F /  12.6 °C 48.6 °F /  9.2 °C 30.1 in /  1020.5 hPa North 6.9 mph /  11.1 km/h 6.9 mph /  11.1 km/h 80 % 0 in /  0.0 mm
02:05 54.7 °F /  12.6 °C 48.6 °F /  9.2 °C 30.1 in /  1020.5 hPa North 5.8 mph /  9.3 km/h 5.8 mph /  9.3 km/h 80 % 0 in /  0.0 mm
02:10 54.5 °F /  12.5 °C 48.6 °F /  9.2 °C 30.1 in /  1020.5 hPa North 3.5 mph /  5.6 km/h 3.6 mph /  5.8 km/h 80 % 0 in /  0.0 mm
02:11 54.5 °F /  12.5 °C 48.6 °F /  9.2 °C 30.1 in /  1020.5 hPa North 5 mph /  8.0 km/h 5 mph /  8.0 km/h 80 % 0 in /  0.0 mm
02:16 54.3 °F /  12.4 °C 48.6 °F /  9.2 °C 30.1 in /  1020.5 hPa North 6 mph /  9.7 km/h 6 mph /  9.7 km/h 81 % 0 in /  0.0 mm
02:21 54.1 °F /  12.3 °C 48.6 °F /  9.2 °C 30.1 in /  1020.2 hPa North 5.8 mph /  9.3 km/h 5.8 mph /  9.3 km/h 81 % 0 in /  0.0 mm
02:25 54.1 °F /  12.3 °C 48.4 °F /  9.1 °C 30.1 in /  1020.2 hPa North 5.8 mph /  9.3 km/h 5.8 mph /  9.3 km/h 81 % 0 in /  0.0 mm
02:30 54 °F /  12.2 °C 48.4 °F /  9.1 °C 30.1 in /  1020.2 hPa North 6 mph /  9.7 km/h 6 mph /  9.7 km/h 81 % 0 in /  0.0 mm
02:31 54 °F /  12.2 °C 48.4 °F /  9.1 °C 30.1 in /  1020.2 hPa North 6 mph /  9.7 km/h 6 mph /  9.7 km/h 81 % 0 in /  0.0 mm
02:36 54 °F /  12.2 °C 48.2 °F /  9.0 °C 30.1 in /  1019.9 hPa NNW 5.8 mph /  9.3 km/h 5.8 mph /  9.3 km/h 81 % 0 in /  0.0 mm
02:39 54 °F /  12.2 °C 48.2 °F /  9.0 °C 30.1 in /  1019.9 hPa NNW 5.8 mph /  9.3 km/h 5.8 mph /  9.3 km/h 81 % 0 in /  0.0 mm
02:44 54 °F /  12.2 °C 48.4 °F /  9.1 °C 30.1 in /  1019.9 hPa North 5.8 mph /  9.3 km/h 5.8 mph /  9.3 km/h 81 % 0 in /  0.0 mm
02:45 54 °F /  12.2 °C 48.4 °F /  9.1 °C 30.1 in /  1019.9 hPa NNW 5 mph /  8.0 km/h 5 mph /  8.0 km/h 81 % 0 in /  0.0 mm
02:49 54 °F /  12.2 °C 48.4 °F /  9.1 °C 30.1 in /  1019.9 hPa North 7 mph /  11.3 km/h 7 mph /  11.3 km/h 81 % 0 in /  0.0 mm
02:54 54 °F /  12.2 °C 48.2 °F /  9.0 °C 30.1 in /  1019.9 hPa North 6.9 mph /  11.1 km/h 6.9 mph /  11.1 km/h 81 % 0 in /  0.0 mm
02:55 54 °F /  12.2 °C 48.2 °F /  9.0 °C 30.1 in /  1019.9 hPa North 5 mph /  8.0 km/h 7 mph /  11.3 km/h 81 % 0 in /  0.0 mm
02:57 53.8 °F /  12.1 °C 48 °F /  8.9 °C 30.1 in /  1019.9 hPa North 6.9 mph /  11.1 km/h 6.9 mph /  11.1 km/h 81 % 0 in /  0.0 mm
03:02 53.8 °F /  12.1 °C 48 °F /  8.9 °C 30.1 in /  1019.9 hPa North 5.8 mph /  9.3 km/h 5.8 mph /  9.3 km/h 81 % 0 in /  0.0 mm
03:04 53.6 °F /  12.0 °C 47.8 °F /  8.8 °C 30.1 in /  1019.9 hPa North 5.8 mph /  9.3 km/h 5.8 mph /  9.3 km/h 81 % 0 in /  0.0 mm
03:06 53.6 °F /  12.0 °C 47.8 °F /  8.8 °C 30.1 in /  1019.9 hPa North 6.9 mph /  11.1 km/h 6.9 mph /  11.1 km/h 81 % 0 in /  0.0 mm
03:11 53.4 °F /  11.9 °C 47.8 °F /  8.8 °C 30.1 in /  1019.9 hPa NNW 4.6 mph /  7.4 km/h 4.6 mph /  7.4 km/h 81 % 0 in /  0.0 mm
03:14 53.6 °F /  12.0 °C 47.8 °F /  8.8 °C 30.1 in /  1019.5 hPa NNW 5.8 mph /  9.3 km/h 5.8 mph /  9.3 km/h 81 % 0 in /  0.0 mm
03:19 53.6 °F /  12.0 °C 47.8 °F /  8.8 °C 30.1 in /  1019.5 hPa NNW 4 mph /  6.4 km/h 4 mph /  6.4 km/h 81 % 0 in /  0.0 mm
03:23 53.6 °F /  12.0 °C 47.8 °F /  8.8 °C 30.1 in /  1019.5 hPa NNW 6 mph /  9.7 km/h 6 mph /  9.7 km/h 81 % 0 in /  0.0 mm
03:28 53.8 °F /  12.1 °C 48 °F /  8.9 °C 30.1 in /  1019.5 hPa NNW 5.8 mph /  9.3 km/h 5.8 mph /  9.3 km/h 81 % 0 in /  0.0 mm
03:31 53.8 °F /  12.1 °C 48 °F /  8.9 °C 30.1 in /  1019.2 hPa North 5.8 mph /  9.3 km/h 5.8 mph /  9.3 km/h 81 % 0 in /  0.0 mm
03:36 53.6 °F /  12.0 °C 47.8 °F /  8.8 °C 30.1 in /  1019.5 hPa North 6.9 mph /  11.1 km/h 6.9 mph /  11.1 km/h 81 % 0 in /  0.0 mm
03:41 53.4 °F /  11.9 °C 47.7 °F /  8.7 °C 30.1 in /  1019.5 hPa NNW 4.6 mph /  7.4 km/h 4.6 mph /  7.4 km/h 81 % 0 in /  0.0 mm
03:46 53.2 °F /  11.8 °C 47.7 °F /  8.7 °C 30.1 in /  1019.2 hPa North 6.9 mph /  11.1 km/h 6.9 mph /  11.1 km/h 81 % 0 in /  0.0 mm
03:49 53.2 °F /  11.8 °C 47.5 °F /  8.6 °C 30.1 in /  1019.2 hPa NNW 8.1 mph /  13.0 km/h 8.1 mph /  13.0 km/h 81 % 0 in /  0.0 mm
03:53 53.1 °F /  11.7 °C 47.5 °F /  8.6 °C 30.1 in /  1019.2 hPa North 6.9 mph /  11.1 km/h 6.9 mph /  11.1 km/h 81 % 0 in /  0.0 mm
03:54 53.1 °F /  11.7 °C 47.5 °F /  8.6 °C 30.1 in /  1019.2 hPa NNW 5.8 mph /  9.3 km/h 5.8 mph /  9.3 km/h 81 % 0 in /  0.0 mm
03:59 53.1 °F /  11.7 °C 47.3 °F /  8.5 °C 30.1 in /  1019.2 hPa NNW 5.8 mph /  9.3 km/h 5.8 mph /  9.3 km/h 81 % 0 in /  0.0 mm
04:00 53.1 °F /  11.7 °C 47.3 °F /  8.5 °C 30.1 in /  1019.2 hPa NNW 6.9 mph /  11.1 km/h 6.9 mph /  11.1 km/h 81 % 0 in /  0.0 mm
04:05 53.1 °F /  11.7 °C 47.3 °F /  8.5 °C 30.1 in /  1019.2 hPa North 5.8 mph /  9.3 km/h 5.8 mph /  9.3 km/h 81 % 0 in /  0.0 mm
04:09 52.9 °F /  11.6 °C 47.1 °F /  8.4 °C 30.1 in /  1019.2 hPa NNW 5.8 mph /  9.3 km/h 5.8 mph /  9.3 km/h 81 % 0 in /  0.0 mm
04:14 53.1 °F /  11.7 °C 47.7 °F /  8.7 °C 30.1 in /  1019.2 hPa NW 3.5 mph /  5.6 km/h 3.5 mph /  5.6 km/h 82 % 0 in /  0.0 mm
04:19 53.1 °F /  11.7 °C 47.7 °F /  8.7 °C 30.1 in /  1019.2 hPa NW 3 mph /  4.8 km/h 3 mph /  4.8 km/h 82 % 0 in /  0.0 mm
04:24 53.1 °F /  11.7 °C 47.7 °F /  8.7 °C 30.1 in /  1019.2 hPa NW 3.5 mph /  5.6 km/h 3.5 mph /  5.6 km/h 82 % 0 in /  0.0 mm
04:25 53.1 °F /  11.7 °C 47.7 °F /  8.7 °C 30.1 in /  1019.2 hPa NW 3.5 mph /  5.6 km/h   82 % 0 in /  0.0 mm
04:30 53.2 °F /  11.8 °C 47.8 °F /  8.8 °C 30.1 in /  1019.2 hPa NW 4 mph /  6.4 km/h 4 mph /  6.4 km/h 82 % 0 in /  0.0 mm
04:31 53.2 °F /  11.8 °C 47.5 °F /  8.6 °C 30.1 in /  1019.2 hPa NW 4.6 mph /  7.4 km/h 4.6 mph /  7.4 km/h 81 % 0 in /  0.0 mm
04:34 53.2 °F /  11.8 °C 47.7 °F /  8.7 °C 30.1 in /  1019.2 hPa NNW 5 mph /  8.0 km/h 5 mph /  8.0 km/h 81 % 0 in /  0.0 mm
04:39 53.6 °F /  12.0 °C 47.8 °F /  8.8 °C 30.1 in /  1019.2 hPa NNW 3.5 mph /  5.6 km/h 3.5 mph /  5.6 km/h 81 % 0 in /  0.0 mm
04:40 53.6 °F /  12.0 °C 47.8 °F /  8.8 °C 30.1 in /  1019.2 hPa NNW 3.5 mph /  5.6 km/h 3.5 mph /  5.6 km/h 81 % 0 in /  0.0 mm
04:45 54 °F /  12.2 °C 47.8 °F /  8.8 °C 30.1 in /  1018.8 hPa NNW 3.5 mph /  5.6 km/h 3.5 mph /  5.6 km/h 80 % 0 in /  0.0 mm
04:50 54.1 °F /  12.3 °C 48 °F /  8.9 °C 30.1 in /  1018.8 hPa NNW 3.5 mph /  5.6 km/h 3.5 mph /  5.6 km/h 80 % 0 in /  0.0 mm
04:55 54.1 °F /  12.3 °C 47.7 °F /  8.7 °C 30.1 in /  1018.8 hPa NNW 3.5 mph /  5.6 km/h 3.5 mph /  5.6 km/h 79 % 0 in /  0.0 mm
04:58 54.1 °F /  12.3 °C 47.7 °F /  8.7 °C 30.1 in /  1018.8 hPa NNW 3.5 mph /  5.6 km/h 3.5 mph /  5.6 km/h 79 % 0 in /  0.0 mm
05:03 54.1 °F /  12.3 °C 47.5 °F /  8.6 °C 30.1 in /  1018.8 hPa NNW 3.5 mph /  5.6 km/h 3.5 mph /  5.6 km/h 78 % 0 in /  0.0 mm
05:04 54.3 °F /  12.4 °C 47.7 °F /  8.7 °C 30.1 in /  1018.8 hPa NNW 3.5 mph /  5.6 km/h 3.5 mph /  5.6 km/h 78 % 0 in /  0.0 mm
05:09 54.1 °F /  12.3 °C 47.5 °F /  8.6 °C 30.1 in /  1018.8 hPa NNW 3.5 mph /  5.6 km/h 3.5 mph /  5.6 km/h 78 % 0 in /  0.0 mm
05:10 54.1 °F /  12.3 °C 47.5 °F /  8.6 °C 30.1 in /  1018.8 hPa NNW 3.5 mph /  5.6 km/h 3.5 mph /  5.6 km/h 78 % 0 in /  0.0 mm
05:15 54 °F /  12.2 °C 46.9 °F /  8.3 °C 30.1 in /  1018.8 hPa NNW 4.6 mph /  7.4 km/h 4.6 mph /  7.4 km/h 77 % 0 in /  0.0 mm
05:17 54 °F /  12.2 °C 46.9 °F /  8.3 °C 30.1 in /  1018.8 hPa NNW 4.6 mph /  7.4 km/h 4.6 mph /  7.4 km/h 77 % 0 in /  0.0 mm
05:21 53.8 °F /  12.1 °C 46.9 °F /  8.3 °C 30.1 in /  1018.8 hPa NNW 4 mph /  6.4 km/h 4 mph /  6.4 km/h 78 % 0 in /  0.0 mm
05:26 53.6 °F /  12.0 °C 46.9 °F /  8.3 °C 30.1 in /  1018.5 hPa NNW 3.5 mph /  5.6 km/h 3.5 mph /  5.6 km/h 78 % 0 in /  0.0 mm
05:27 53.6 °F /  12.0 °C 46.9 °F /  8.3 °C 30.1 in /  1018.5 hPa NNW 3.5 mph /  5.6 km/h 3.5 mph /  5.6 km/h 78 % 0 in /  0.0 mm
05:30 53.4 °F /  11.9 °C 46.8 °F /  8.2 °C 30.1 in /  1018.8 hPa NNW 3.5 mph /  5.6 km/h 3.5 mph /  5.6 km/h 78 % 0 in /  0.0 mm
05:32 53.2 °F /  11.8 °C 46.6 °F /  8.1 °C 30.1 in /  1018.8 hPa NNW 4 mph /  6.4 km/h 4 mph /  6.4 km/h 78 % 0 in /  0.0 mm
05:37 53.1 °F /  11.7 °C 46.2 °F /  7.9 °C 30.1 in /  1018.8 hPa NW 5 mph /  8.0 km/h 5 mph /  8.0 km/h 78 % 0 in /  0.0 mm
05:38 53.1 °F /  11.7 °C 46.2 °F /  7.9 °C 30.1 in /  1018.8 hPa NW 5 mph /  8.0 km/h 5 mph /  8.0 km/h 78 % 0 in /  0.0 mm
05:42 53.1 °F /  11.7 °C 46.4 °F /  8.0 °C 30.1 in /  1018.8 hPa NNW 5 mph /  8.0 km/h 5 mph /  8.0 km/h 78 % 0 in /  0.0 mm
05:44 53.1 °F /  11.7 °C 46.2 °F /  7.9 °C 30.1 in /  1018.5 hPa NNW 4.6 mph /  7.4 km/h 4.6 mph /  7.4 km/h 78 % 0 in /  0.0 mm
05:47 52.5 °F /  11.4 °C 45.9 °F /  7.7 °C 30.1 in /  1018.5 hPa NNW 5.8 mph /  9.3 km/h 5.8 mph /  9.3 km/h 78 % 0 in /  0.0 mm
05:49 52.3 °F /  11.3 °C 45.7 °F /  7.6 °C 30.1 in /  1018.5 hPa NNW 7 mph /  11.3 km/h 7 mph /  11.3 km/h 78 % 0 in /  0.0 mm
05:54 51.6 °F /  10.9 °C 45.3 °F /  7.4 °C 30.1 in /  1018.5 hPa North 6 mph /  9.7 km/h 6 mph /  9.7 km/h 79 % 0 in /  0.0 mm
05:59 51.3 °F /  10.7 °C 45.3 °F /  7.4 °C 30.1 in /  1018.5 hPa NNW 3.5 mph /  5.6 km/h 3.5 mph /  5.6 km/h 80 % 0 in /  0.0 mm
06:00 51.3 °F /  10.7 °C 45.7 °F /  7.6 °C 30.1 in /  1018.5 hPa NNW 4 mph /  6.4 km/h 4 mph /  6.4 km/h 81 % 0 in /  0.0 mm
06:05 51.3 °F /  10.7 °C 45.7 °F /  7.6 °C 30.1 in /  1018.5 hPa NNW 6.9 mph /  11.1 km/h 6.9 mph /  11.1 km/h 81 % 0 in /  0.0 mm
06:06 51.3 °F /  10.7 °C 45.7 °F /  7.6 °C 30.1 in /  1018.5 hPa NNW 6.9 mph /  11.1 km/h 6.9 mph /  11.1 km/h 81 % 0 in /  0.0 mm
06:11 51.3 °F /  10.7 °C 45.7 °F /  7.6 °C 30.1 in /  1018.5 hPa NNW 5.8 mph /  9.3 km/h 5.8 mph /  9.3 km/h 81 % 0 in /  0.0 mm
06:15 51.3 °F /  10.7 °C 45.7 °F /  7.6 °C 30.1 in /  1018.5 hPa NNW 4 mph /  6.4 km/h 4 mph /  6.4 km/h 81 % 0 in /  0.0 mm
06:20 51.3 °F /  10.7 °C 45.7 °F /  7.6 °C 30.1 in /  1018.5 hPa NNW 4 mph /  6.4 km/h 4 mph /  6.4 km/h 81 % 0 in /  0.0 mm
06:25 51.1 °F /  10.6 °C 45.3 °F /  7.4 °C 30.1 in /  1018.5 hPa North 5.8 mph /  9.3 km/h 5.8 mph /  9.3 km/h 81 % 0 in /  0.0 mm
06:27 50.9 °F /  10.5 °C 45.3 °F /  7.4 °C 30.1 in /  1018.5 hPa North 6 mph /  9.7 km/h 6 mph /  9.7 km/h 81 % 0 in /  0.0 mm
06:32 50.7 °F /  10.4 °C 45.3 °F /  7.4 °C 30.1 in /  1018.5 hPa NNW 6.9 mph /  11.1 km/h 6.9 mph /  11.1 km/h 82 % 0 in /  0.0 mm
06:36 50.7 °F /  10.4 °C 45.3 °F /  7.4 °C 30.1 in /  1018.5 hPa North 8.1 mph /  13.0 km/h 8.1 mph /  13.0 km/h 82 % 0 in /  0.0 mm
06:38 50.7 °F /  10.4 °C 45.3 °F /  7.4 °C 30.1 in /  1018.5 hPa North 6.9 mph /  11.1 km/h 6.9 mph /  11.1 km/h 82 % 0 in /  0.0 mm
06:39 50.5 °F /  10.3 °C 45.3 °F /  7.4 °C 30.1 in /  1018.5 hPa North 5.8 mph /  9.3 km/h 5.8 mph /  9.3 km/h 82 % 0 in /  0.0 mm
06:42 50.5 °F /  10.3 °C 45.3 °F /  7.4 °C 30.1 in /  1018.5 hPa North 6.9 mph /  11.1 km/h 6.9 mph /  11.1 km/h 82 % 0 in /  0.0 mm
06:47 50.4 °F /  10.2 °C 45.1 °F /  7.3 °C 30.1 in /  1018.5 hPa NNW 8.1 mph /  13.0 km/h 8.1 mph /  13.0 km/h 82 % 0 in /  0.0 mm
06:52 50.5 °F /  10.3 °C 45.1 °F /  7.3 °C 30.1 in /  1018.5 hPa NNW 4.6 mph /  7.4 km/h 4.6 mph /  7.4 km/h 82 % 0 in /  0.0 mm
06:57 50.5 °F /  10.3 °C 45.3 °F /  7.4 °C 30.1 in /  1018.5 hPa NNW 4.6 mph /  7.4 km/h 4.6 mph /  7.4 km/h 82 % 0 in /  0.0 mm
06:58 50.5 °F /  10.3 °C 45.3 °F /  7.4 °C 30.1 in /  1018.5 hPa NNW 5 mph /  8.0 km/h 5 mph /  8.0 km/h 82 % 0 in /  0.0 mm
07:03 50.7 °F /  10.4 °C 45.5 °F /  7.5 °C 30.1 in /  1018.5 hPa NNW 6 mph /  9.7 km/h 6 mph /  9.7 km/h 82 % 0 in /  0.0 mm
07:04 50.7 °F /  10.4 °C 45.5 °F /  7.5 °C 30.1 in /  1018.5 hPa NNW 5.8 mph /  9.3 km/h 5.8 mph /  9.3 km/h 82 % 0 in /  0.0 mm
07:09 50.9 °F /  10.5 °C 45.7 °F /  7.6 °C 30.1 in /  1018.5 hPa NNW 4 mph /  6.4 km/h 4 mph /  6.4 km/h 82 % 0 in /  0.0 mm
07:10 50.9 °F /  10.5 °C 45.7 °F /  7.6 °C 30.1 in /  1018.5 hPa NNW 3.5 mph /  5.6 km/h 3.5 mph /  5.6 km/h 82 % 0 in /  0.0 mm
07:15 51.1 °F /  10.6 °C 45.3 °F /  7.4 °C 30.1 in /  1018.5 hPa NNW 3.5 mph /  5.6 km/h 3.5 mph /  5.6 km/h 81 % 0 in /  0.0 mm
07:19 51.1 °F /  10.6 °C 45.3 °F /  7.4 °C 30.1 in /  1018.8 hPa NNW 4 mph /  6.4 km/h 4 mph /  6.4 km/h 81 % 0 in /  0.0 mm
07:24 51.1 °F /  10.6 °C 45.5 °F /  7.5 °C 30.1 in /  1018.8 hPa NNW 4 mph /  6.4 km/h 4 mph /  6.4 km/h 81 % 0 in /  0.0 mm
07:29 51.1 °F /  10.6 °C 45.5 °F /  7.5 °C 30.1 in /  1018.8 hPa WNW 3.5 mph /  5.6 km/h 3.5 mph /  5.6 km/h 81 % 0 in /  0.0 mm
07:32 51.1 °F /  10.6 °C 45.5 °F /  7.5 °C 30.1 in /  1018.8 hPa WNW 2.3 mph /  3.7 km/h 2.3 mph /  3.7 km/h 81 % 0 in /  0.0 mm
07:35 50.7 °F /  10.4 °C 45 °F /  7.2 °C 30.1 in /  1018.8 hPa NW 2.3 mph /  3.7 km/h 2.3 mph /  3.7 km/h 80 % 0 in /  0.0 mm
07:40 50.7 °F /  10.4 °C 45.1 °F /  7.3 °C 30.1 in /  1018.8 hPa NW 2.3 mph /  3.7 km/h 2.3 mph /  3.7 km/h 81 % 0 in /  0.0 mm
07:42 50.5 °F /  10.3 °C 45 °F /  7.2 °C 30.1 in /  1018.8 hPa NW 3.5 mph /  5.6 km/h 3.5 mph /  5.6 km/h 81 % 0 in /  0.0 mm
07:43 50.5 °F /  10.3 °C 45 °F /  7.2 °C 30.1 in /  1018.8 hPa NW 3.5 mph /  5.6 km/h 3.5 mph /  5.6 km/h 81 % 0 in /  0.0 mm
07:48 50.5 °F /  10.3 °C 45 °F /  7.2 °C 30.1 in /  1018.5 hPa NW 3.5 mph /  5.6 km/h 3.5 mph /  5.6 km/h 81 % 0 in /  0.0 mm
07:53 50.7 °F /  10.4 °C 45.1 °F /  7.3 °C 30.1 in /  1018.5 hPa North 6.9 mph /  11.1 km/h 6.9 mph /  11.1 km/h 81 % 0 in /  0.0 mm
07:55 50.7 °F /  10.4 °C 45 °F /  7.2 °C 30.1 in /  1018.5 hPa NNW 5.8 mph /  9.3 km/h 5.8 mph /  9.3 km/h 80 % 0 in /  0.0 mm
08:00 50.7 °F /  10.4 °C 45 °F /  7.2 °C 30.1 in /  1018.5 hPa NNW 6.9 mph /  11.1 km/h 6.9 mph /  11.1 km/h 80 % 0 in /  0.0 mm
08:04 50.7 °F /  10.4 °C 45 °F /  7.2 °C 30.1 in /  1018.5 hPa North 3.5 mph /  5.6 km/h 3.5 mph /  5.6 km/h 80 % 0 in /  0.0 mm
08:06 50.7 °F /  10.4 °C 45 °F /  7.2 °C 30.1 in /  1018.5 hPa North 5 mph /  8.0 km/h 5 mph /  8.0 km/h 80 % 0 in /  0.0 mm
08:11 50.5 °F /  10.3 °C 44.6 °F /  7.0 °C 30.1 in /  1018.5 hPa NNW 6.9 mph /  11.1 km/h 6.9 mph /  11.1 km/h 80 % 0 in /  0.0 mm
08:16 50.4 °F /  10.2 °C 44.8 °F /  7.1 °C 30.1 in /  1018.5 hPa NW 8.1 mph /  13.0 km/h 8.1 mph /  13.0 km/h 81 % 0 in /  0.0 mm
08:17 50.4 °F /  10.2 °C 44.8 °F /  7.1 °C 30.1 in /  1018.5 hPa NNW 6.9 mph /  11.1 km/h 6.9 mph /  11.1 km/h 81 % 0 in /  0.0 mm
08:22 50.4 °F /  10.2 °C 44.8 °F /  7.1 °C 30.1 in /  1018.5 hPa North 8.1 mph /  13.0 km/h 8.1 mph /  13.0 km/h 81 % 0 in /  0.0 mm
08:23 50.4 °F /  10.2 °C 44.8 °F /  7.1 °C 30.1 in /  1018.5 hPa North 9.2 mph /  14.8 km/h 9.2 mph /  14.8 km/h 81 % 0 in /  0.0 mm
08:25 50.4 °F /  10.2 °C 44.8 °F /  7.1 °C 30.1 in /  1018.5 hPa North 6.9 mph /  11.1 km/h 6.9 mph /  11.1 km/h 81 % 0 in /  0.0 mm
08:30 50.5 °F /  10.3 °C 45 °F /  7.2 °C 30.1 in /  1018.5 hPa North 9.2 mph /  14.8 km/h 9.2 mph /  14.8 km/h 81 % 0 in /  0.0 mm
08:31 50.4 °F /  10.2 °C 44.8 °F /  7.1 °C 30.1 in /  1018.5 hPa North 9.2 mph /  14.8 km/h 9.2 mph /  14.8 km/h 81 % 0 in /  0.0 mm
08:36 50.4 °F /  10.2 °C 44.8 °F /  7.1 °C 30.1 in /  1018.5 hPa North 9.2 mph /  14.8 km/h 9.2 mph /  14.8 km/h 81 % 0 in /  0.0 mm
08:41 50.5 °F /  10.3 °C 45 °F /  7.2 °C 30.1 in /  1018.5 hPa NNW 9.2 mph /  14.8 km/h 9.2 mph /  14.8 km/h 81 % 0 in /  0.0 mm
08:46 50.5 °F /  10.3 °C 45 °F /  7.2 °C 30.1 in /  1018.5 hPa North 9.2 mph /  14.8 km/h 9.2 mph /  14.8 km/h 81 % 0 in /  0.0 mm
08:49 50.7 °F /  10.4 °C 45.1 °F /  7.3 °C 30.1 in /  1018.5 hPa North 9.2 mph /  14.8 km/h 9.2 mph /  14.8 km/h 81 % 0 in /  0.0 mm
08:52 50.7 °F /  10.4 °C 45.1 °F /  7.3 °C 30.1 in /  1018.5 hPa WNW 8.1 mph /  13.0 km/h 8.1 mph /  13.0 km/h 81 % 0 in /  0.0 mm
08:57 51.1 °F /  10.6 °C 45.5 °F /  7.5 °C 30.1 in /  1018.2 hPa North 11 mph /  17.7 km/h 11 mph /  17.7 km/h 81 % 0 in /  0.0 mm
09:02 52.5 °F /  11.4 °C 46.8 °F /  8.2 °C 30.1 in /  1018.2 hPa NNW 6.9 mph /  11.1 km/h 6.9 mph /  11.1 km/h 81 % 0 in /  0.0 mm
09:03 52.5 °F /  11.4 °C 46.8 °F /  8.2 °C 30.1 in /  1018.2 hPa NNW 4.6 mph /  7.4 km/h 4.6 mph /  7.4 km/h 81 % 0 in /  0.0 mm
09:08 53.1 °F /  11.7 °C 46.8 °F /  8.2 °C 30.1 in /  1018.2 hPa NNW 5 mph /  8.0 km/h 5 mph /  8.0 km/h 79 % 0 in /  0.0 mm
09:10 53.2 °F /  11.8 °C 46.9 °F /  8.3 °C 30.1 in /  1018.5 hPa North 8.1 mph /  13.0 km/h 8.1 mph /  13.0 km/h 79 % 0 in /  0.0 mm
09:14 53.4 °F /  11.9 °C 46.8 °F /  8.2 °C 30.1 in /  1018.5 hPa NNW 3.5 mph /  5.6 km/h 3.5 mph /  5.6 km/h 78 % 0 in /  0.0 mm
09:18 53.8 °F /  12.1 °C 46.9 °F /  8.3 °C 30.1 in /  1018.5 hPa NNW 4 mph /  6.4 km/h 4 mph /  6.4 km/h 78 % 0 in /  0.0 mm
09:20 53.8 °F /  12.1 °C 46.9 °F /  8.3 °C 30.1 in /  1018.5 hPa NNW 6.9 mph /  11.1 km/h 6.9 mph /  11.1 km/h 78 % 0 in /  0.0 mm
09:24 54 °F /  12.2 °C 46.9 °F /  8.3 °C 30.1 in /  1018.5 hPa North 6 mph /  9.7 km/h 6 mph /  9.7 km/h 77 % 0 in /  0.0 mm
09:26 54 °F /  12.2 °C 46.6 °F /  8.1 °C 30.1 in /  1018.2 hPa North 6.9 mph /  11.1 km/h 6.9 mph /  11.1 km/h 76 % 0 in /  0.0 mm
09:30 53.8 °F /  12.1 °C 46 °F /  7.8 °C 30.1 in /  1018.2 hPa NNW 6.9 mph /  11.1 km/h 6.9 mph /  11.1 km/h 75 % 0 in /  0.0 mm
09:32 53.8 °F /  12.1 °C 46.2 °F /  7.9 °C 30.1 in /  1018.5 hPa North 10.4 mph /  16.7 km/h 10.4 mph /  16.7 km/h 76 % 0 in /  0.0 mm
09:35 53.2 °F /  11.8 °C 45.7 °F /  7.6 °C 30.1 in /  1018.2 hPa North 8.1 mph /  13.0 km/h 8.1 mph /  13.0 km/h 75 % 0 in /  0.0 mm
09:40 53.4 °F /  11.9 °C 46 °F /  7.8 °C 30.1 in /  1018.5 hPa NNW 5.8 mph /  9.3 km/h 5.8 mph /  9.3 km/h 76 % 0 in /  0.0 mm
09:43 53.8 °F /  12.1 °C 46.2 °F /  7.9 °C 30.1 in /  1018.5 hPa North 5.8 mph /  9.3 km/h 5.8 mph /  9.3 km/h 76 % 0 in /  0.0 mm
09:48 54.1 °F /  12.3 °C 46.8 °F /  8.2 °C 30.1 in /  1018.5 hPa North 6.9 mph /  11.1 km/h 6.9 mph /  11.1 km/h 76 % 0 in /  0.0 mm
09:50 54.3 °F /  12.4 °C 46.9 °F /  8.3 °C 30.1 in /  1018.5 hPa North 3.5 mph /  5.6 km/h 3.5 mph /  5.6 km/h 76 % 0 in /  0.0 mm
09:51 54.5 °F /  12.5 °C 47.1 °F /  8.4 °C 30.1 in /  1018.2 hPa NNW 3.5 mph /  5.6 km/h 3.5 mph /  5.6 km/h 76 % 0 in /  0.0 mm
09:55 54.9 °F /  12.7 °C 47.1 °F /  8.4 °C 30.1 in /  1018.2 hPa North 5.8 mph /  9.3 km/h 5.8 mph /  9.3 km/h 75 % 0 in /  0.0 mm
10:00 55.2 °F /  12.9 °C 47.5 °F /  8.6 °C 30.1 in /  1018.2 hPa North 2.3 mph /  3.7 km/h 2.3 mph /  3.7 km/h 75 % 0 in /  0.0 mm
10:05 55.8 °F /  13.2 °C 47.8 °F /  8.8 °C 30.1 in /  1018.2 hPa North 3.5 mph /  5.6 km/h 3.5 mph /  5.6 km/h 75 % 0 in /  0.0 mm
10:06 55.8 °F /  13.2 °C 48 °F /  8.9 °C 30.1 in /  1018.2 hPa North 4 mph /  6.4 km/h 4 mph /  6.4 km/h 75 % 0 in /  0.0 mm
10:12 56.1 °F /  13.4 °C 47.7 °F /  8.7 °C 30.1 in /  1018.2 hPa NNE 5.8 mph /  9.3 km/h 5.8 mph /  9.3 km/h 73 % 0 in /  0.0 mm
10:17 56.1 °F /  13.4 °C 47.7 °F /  8.7 °C 30.1 in /  1018.2 hPa NNE 2.3 mph /  3.7 km/h 2.3 mph /  3.7 km/h 73 % 0 in /  0.0 mm
10:22 56.7 °F /  13.7 °C 48 °F /  8.9 °C 30.1 in /  1018.2 hPa NNE 1.2 mph /  1.9 km/h 1.2 mph /  1.9 km/h 73 % 0 in /  0.0 mm
10:27 57.2 °F /  14.0 °C 48.6 °F /  9.2 °C 30.1 in /  1018.2 hPa NNE 3.5 mph /  5.6 km/h 3.5 mph /  5.6 km/h 73 % 0 in /  0.0 mm
10:28 57.4 °F /  14.1 °C 48.7 °F /  9.3 °C 30.1 in /  1018.2 hPa NNE 3.5 mph /  5.6 km/h 3.5 mph /  5.6 km/h 73 % 0 in /  0.0 mm
10:31 57.4 °F /  14.1 °C 48.4 °F /  9.1 °C 30.1 in /  1018.2 hPa NE 5.8 mph /  9.3 km/h 5.8 mph /  9.3 km/h 72 % 0 in /  0.0 mm
10:36 57.6 °F /  14.2 °C 48.9 °F /  9.4 °C 30.1 in /  1017.8 hPa NE 4.6 mph /  7.4 km/h 4.6 mph /  7.4 km/h 73 % 0 in /  0.0 mm
10:37 57.7 °F /  14.3 °C 49.1 °F /  9.5 °C 30.1 in /  1017.8 hPa NE 3.5 mph /  5.6 km/h 3.5 mph /  5.6 km/h 73 % 0 in /  0.0 mm
10:42 58.3 °F /  14.6 °C 50 °F /  10.0 °C 30.1 in /  1017.8 hPa NW 6.9 mph /  11.1 km/h 6.9 mph /  11.1 km/h 74 % 0 in /  0.0 mm
10:47 59.2 °F /  15.1 °C 50.2 °F /  10.1 °C 30.1 in /  1017.8 hPa West 17.3 mph /  27.8 km/h 17.3 mph /  27.8 km/h 72 % 0 in /  0.0 mm
10:50 60.1 °F /  15.6 °C 50.4 °F /  10.2 °C 30.1 in /  1017.8 hPa West 13 mph /  20.9 km/h 13 mph /  20.9 km/h 70 % 0 in /  0.0 mm
10:51 60.4 °F /  15.8 °C 50.5 °F /  10.3 °C 30.1 in /  1017.8 hPa West 11 mph /  17.7 km/h 11 mph /  17.7 km/h 70 % 0 in /  0.0 mm
10:56 61.5 °F /  16.4 °C 50.4 °F /  10.2 °C 30.1 in /  1017.8 hPa WSW 9.2 mph /  14.8 km/h 9.2 mph /  14.8 km/h 67 % 0 in /  0.0 mm
10:57 61.5 °F /  16.4 °C 50.5 °F /  10.3 °C 30.1 in /  1017.8 hPa West 9 mph /  14.5 km/h 9 mph /  14.5 km/h 67 % 0 in /  0.0 mm
11:02 62.1 °F /  16.7 °C 50.2 °F /  10.1 °C 30.1 in /  1017.8 hPa WSW 12 mph /  19.3 km/h 12 mph /  19.3 km/h 65 % 0 in /  0.0 mm
11:07 62.4 °F /  16.9 °C 50.2 °F /  10.1 °C 30.1 in /  1017.8 hPa WSW 15 mph /  24.1 km/h 15 mph /  24.1 km/h 64 % 0 in /  0.0 mm
11:08 62.4 °F /  16.9 °C 50.2 °F /  10.1 °C 30.1 in /  1017.8 hPa WSW 17.3 mph /  27.8 km/h 17.3 mph /  27.8 km/h 64 % 0 in /  0.0 mm
11:10 62.6 °F /  17.0 °C 49.8 °F /  9.9 °C 30.1 in /  1017.8 hPa WSW 15 mph /  24.1 km/h 15 mph /  24.1 km/h 63 % 0 in /  0.0 mm
11:13 62.8 °F /  17.1 °C 49.8 °F /  9.9 °C 30.1 in /  1017.8 hPa WSW 9.2 mph /  14.8 km/h 9.2 mph /  14.8 km/h 63 % 0 in /  0.0 mm
11:16 62.8 °F /  17.1 °C 50 °F /  10.0 °C 30.1 in /  1017.5 hPa WSW 13.8 mph /  22.2 km/h 13.8 mph /  22.2 km/h 63 % 0 in /  0.0 mm
11:21 63 °F /  17.2 °C 50.2 °F /  10.1 °C 30.1 in /  1017.5 hPa WSW 17.3 mph /  27.8 km/h 17.3 mph /  27.8 km/h 63 % 0 in /  0.0 mm
11:26 62.8 °F /  17.1 °C 50.9 °F /  10.5 °C 30.1 in /  1017.5 hPa WSW 17.3 mph /  27.8 km/h 17.3 mph /  27.8 km/h 65 % 0 in /  0.0 mm
11:31 62.2 °F /  16.8 °C 52 °F /  11.1 °C 30.1 in /  1017.5 hPa WSW 13.8 mph /  22.2 km/h 13.8 mph /  22.2 km/h 69 % 0 in /  0.0 mm
11:33 62.1 °F /  16.7 °C 51.4 °F /  10.8 °C 30.1 in /  1017.5 hPa West 15 mph /  24.1 km/h 15 mph /  24.1 km/h 68 % 0 in /  0.0 mm
11:36 62.1 °F /  16.7 °C 50.9 °F /  10.5 °C 30.1 in /  1017.5 hPa West 12 mph /  19.3 km/h 12 mph /  19.3 km/h 67 % 0 in /  0.0 mm
11:41 62.6 °F /  17.0 °C 49.8 °F /  9.9 °C 30.1 in /  1017.5 hPa SW 16.1 mph /  25.9 km/h 16.1 mph /  25.9 km/h 63 % 0 in /  0.0 mm
11:46 63.1 °F /  17.3 °C 49.8 °F /  9.9 °C 30 in /  1017.2 hPa WSW 17.3 mph /  27.8 km/h 17.3 mph /  27.8 km/h 62 % 0 in /  0.0 mm
11:47 63.1 °F /  17.3 °C 49.5 °F /  9.7 °C 30 in /  1017.2 hPa West 16.1 mph /  25.9 km/h 16.1 mph /  25.9 km/h 61 % 0 in /  0.0 mm
11:51 63.3 °F /  17.4 °C 50.2 °F /  10.1 °C 30 in /  1017.2 hPa West 16.1 mph /  25.9 km/h 16.1 mph /  25.9 km/h 62 % 0 in /  0.0 mm
11:57 63.1 °F /  17.3 °C 51.1 °F /  10.6 °C 30 in /  1017.2 hPa WSW 16 mph /  25.7 km/h 16 mph /  25.7 km/h 65 % 0 in /  0.0 mm
11:58 63 °F /  17.2 °C 51.1 °F /  10.6 °C 30 in /  1017.2 hPa WSW 18 mph /  29.0 km/h 18 mph /  29.0 km/h 65 % 0 in /  0.0 mm
11:59 63 °F /  17.2 °C 50.5 °F /  10.3 °C 30 in /  1016.8 hPa West 18.4 mph /  29.6 km/h 18.4 mph /  29.6 km/h 64 % 0 in /  0.0 mm
12:04 62.8 °F /  17.1 °C 51.3 °F /  10.7 °C 30 in /  1016.8 hPa WSW 18.4 mph /  29.6 km/h 18.4 mph /  29.6 km/h 66 % 0 in /  0.0 mm
12:05 62.8 °F /  17.1 °C 51.3 °F /  10.7 °C 30 in /  1016.8 hPa West 15 mph /  24.1 km/h 15 mph /  24.1 km/h 66 % 0 in /  0.0 mm
12:06 62.6 °F /  17.0 °C 51.1 °F /  10.6 °C 30 in /  1016.8 hPa WSW 15 mph /  24.1 km/h 15 mph /  24.1 km/h 66 % 0 in /  0.0 mm
12:11 62.8 °F /  17.1 °C 50.9 °F /  10.5 °C 30 in /  1016.5 hPa West 13.8 mph /  22.2 km/h 13.8 mph /  22.2 km/h 65 % 0 in /  0.0 mm
12:16 63.3 °F /  17.4 °C 50.2 °F /  10.1 °C 30 in /  1016.5 hPa West 13.8 mph /  22.2 km/h 13.8 mph /  22.2 km/h 62 % 0 in /  0.0 mm
12:17 63.7 °F /  17.6 °C 49.8 °F /  9.9 °C 30 in /  1016.5 hPa WNW 13.8 mph /  22.2 km/h 13.8 mph /  22.2 km/h 61 % 0 in /  0.0 mm
12:21 63.9 °F /  17.7 °C 50.2 °F /  10.1 °C 30 in /  1016.1 hPa WNW 13.8 mph /  22.2 km/h 13.8 mph /  22.2 km/h 61 % 0 in /  0.0 mm
12:25 63.9 °F /  17.7 °C 49.6 °F /  9.8 °C 30 in /  1016.1 hPa West 19.6 mph /  31.5 km/h 19.6 mph /  31.5 km/h 60 % 0 in /  0.0 mm
12:31 63.9 °F /  17.7 °C 49.3 °F /  9.6 °C 30 in /  1015.8 hPa WNW 8.1 mph /  13.0 km/h 8.1 mph /  13.0 km/h 59 % 0 in /  0.0 mm
12:32 64 °F /  17.8 °C 49.5 °F /  9.7 °C 30 in /  1015.8 hPa WSW 8 mph /  12.9 km/h 8 mph /  12.9 km/h 59 % 0 in /  0.0 mm
12:37 64 °F /  17.8 °C 48.9 °F /  9.4 °C 30 in /  1015.8 hPa WNW 13.8 mph /  22.2 km/h 13.8 mph /  22.2 km/h 58 % 0 in /  0.0 mm
12:39 64 °F /  17.8 °C 48.9 °F /  9.4 °C 30 in /  1015.8 hPa West 11.5 mph /  18.5 km/h 11.5 mph /  18.5 km/h 58 % 0 in /  0.0 mm
12:41 64 °F /  17.8 °C 48.9 °F /  9.4 °C 30 in /  1015.8 hPa West 13.8 mph /  22.2 km/h 13.8 mph /  22.2 km/h 58 % 0 in /  0.0 mm
12:44 64 °F /  17.8 °C 48.9 °F /  9.4 °C 30 in /  1015.8 hPa WSW 11.5 mph /  18.5 km/h 11.5 mph /  18.5 km/h 58 % 0 in /  0.0 mm
12:49 64 °F /  17.8 °C 48.9 °F /  9.4 °C 30 in /  1015.5 hPa West 9.2 mph /  14.8 km/h 9.2 mph /  14.8 km/h 58 % 0 in /  0.0 mm
12:54 64.4 °F /  18.0 °C 49.3 °F /  9.6 °C 30 in /  1015.5 hPa West 8.1 mph /  13.0 km/h 8.1 mph /  13.0 km/h 58 % 0 in /  0.0 mm
12:57 64.6 °F /  18.1 °C 48.9 °F /  9.4 °C 30 in /  1015.1 hPa WNW 13 mph /  20.9 km/h 13 mph /  20.9 km/h 57 % 0 in /  0.0 mm
13:00 64.8 °F /  18.2 °C 48.6 °F /  9.2 °C 30 in /  1015.1 hPa West 15 mph /  24.1 km/h 15 mph /  24.1 km/h 56 % 0 in /  0.0 mm
13:02 64.8 °F /  18.2 °C 48.6 °F /  9.2 °C 30 in /  1015.1 hPa WNW 15 mph /  24.1 km/h 15 mph /  24.1 km/h 56 % 0 in /  0.0 mm
13:07 64.8 °F /  18.2 °C 48.7 °F /  9.3 °C 30 in /  1015.1 hPa WNW 16.1 mph /  25.9 km/h 16.1 mph /  25.9 km/h 56 % 0 in /  0.0 mm
13:10 64.8 °F /  18.2 °C 48.7 °F /  9.3 °C 30 in /  1014.8 hPa West 8.1 mph /  13.0 km/h 8.1 mph /  13.0 km/h 56 % 0 in /  0.0 mm
13:13 64.8 °F /  18.2 °C 48.2 °F /  9.0 °C 30 in /  1014.8 hPa West 12.7 mph /  20.4 km/h 12.8 mph /  20.6 km/h 55 % 0 in /  0.0 mm
13:18 64.9 °F /  18.3 °C 48.4 °F /  9.1 °C 30 in /  1014.8 hPa West 10.4 mph /  16.7 km/h 10.4 mph /  16.7 km/h 55 % 0 in /  0.0 mm
13:23 64.9 °F /  18.3 °C 47.8 °F /  8.8 °C 30 in /  1014.4 hPa West 15 mph /  24.1 km/h 15 mph /  24.1 km/h 54 % 0 in /  0.0 mm
13:28 64.9 °F /  18.3 °C 48.4 °F /  9.1 °C 30 in /  1014.4 hPa West 15 mph /  24.1 km/h 15 mph /  24.1 km/h 55 % 0 in /  0.0 mm
13:33 64.9 °F /  18.3 °C 48.4 °F /  9.1 °C 30 in /  1014.4 hPa West 13.8 mph /  22.2 km/h 13.8 mph /  22.2 km/h 55 % 0 in /  0.0 mm
13:35 65.1 °F /  18.4 °C 48.6 °F /  9.2 °C 29.9 in /  1014.1 hPa West 12.7 mph /  20.4 km/h 12.7 mph /  20.4 km/h 55 % 0 in /  0.0 mm
13:36 65.1 °F /  18.4 °C 48.6 °F /  9.2 °C 29.9 in /  1014.1 hPa West 12.7 mph /  20.4 km/h 12.7 mph /  20.4 km/h 55 % 0 in /  0.0 mm
13:41 65.1 °F /  18.4 °C 48.6 °F /  9.2 °C 29.9 in /  1014.1 hPa WSW 15 mph /  24.1 km/h 15 mph /  24.1 km/h 55 % 0 in /  0.0 mm
13:46 65.1 °F /  18.4 °C 48.6 °F /  9.2 °C 29.9 in /  1014.1 hPa West 11.5 mph /  18.5 km/h 11.5 mph /  18.5 km/h 55 % 0 in /  0.0 mm
13:51 65.3 °F /  18.5 °C 48.2 °F /  9.0 °C 29.9 in /  1014.1 hPa WSW 13 mph /  20.9 km/h 13 mph /  20.9 km/h 54 % 0 in /  0.0 mm
13:53 65.3 °F /  18.5 °C 48.7 °F /  9.3 °C 29.9 in /  1013.8 hPa WSW 19.6 mph /  31.5 km/h 19.6 mph /  31.5 km/h 55 % 0 in /  0.0 mm
13:54 65.3 °F /  18.5 °C 48.7 °F /  9.3 °C 29.9 in /  1013.8 hPa WSW 19.6 mph /  31.5 km/h 19.6 mph /  31.5 km/h 55 % 0 in /  0.0 mm
13:59 65.1 °F /  18.4 °C 49.5 °F /  9.7 °C 29.9 in /  1013.8 hPa WSW 15 mph /  24.1 km/h 15 mph /  24.1 km/h 57 % 0 in /  0.0 mm
14:04 65.1 °F /  18.4 °C 49.5 °F /  9.7 °C 29.9 in /  1013.4 hPa WSW 11.5 mph /  18.5 km/h 11.5 mph /  18.5 km/h 57 % 0 in /  0.0 mm
14:08 64.9 °F /  18.3 °C 48.9 °F /  9.4 °C 29.9 in /  1013.4 hPa West 17.3 mph /  27.8 km/h 17.3 mph /  27.8 km/h 56 % 0 in /  0.0 mm
14:12 65.1 °F /  18.4 °C 49.5 °F /  9.7 °C 29.9 in /  1013.4 hPa West 16.1 mph /  25.9 km/h 16.1 mph /  25.9 km/h 57 % 0 in /  0.0 mm
14:17 64.9 °F /  18.3 °C 49.3 °F /  9.6 °C 29.9 in /  1013.1 hPa WSW 18.4 mph /  29.6 km/h 18.4 mph /  29.6 km/h 57 % 0 in /  0.0 mm
14:20 64.6 °F /  18.1 °C 49.5 °F /  9.7 °C 29.9 in /  1013.1 hPa West 23 mph /  37.0 km/h 23 mph /  37.0 km/h 58 % 0 in /  0.0 mm
14:25 64.2 °F /  17.9 °C 49.6 °F /  9.8 °C 29.9 in /  1013.1 hPa WSW 20.7 mph /  33.3 km/h 20.7 mph /  33.3 km/h 59 % 0 in /  0.0 mm
14:30 63.7 °F /  17.6 °C 49.5 °F /  9.7 °C 29.9 in /  1013.1 hPa West 24.2 mph /  38.9 km/h 24.2 mph /  38.9 km/h 60 % 0 in /  0.0 mm
14:33 63.5 °F /  17.5 °C 49.8 °F /  9.9 °C 29.9 in /  1013.1 hPa West 23 mph /  37.0 km/h 23 mph /  37.0 km/h 61 % 0 in /  0.0 mm
14:36 63.5 °F /  17.5 °C 49.8 °F /  9.9 °C 29.9 in /  1013.1 hPa WSW 21.9 mph /  35.2 km/h 21.9 mph /  35.2 km/h 61 % 0 in /  0.0 mm
14:40 63.7 °F /  17.6 °C 49.5 °F /  9.7 °C 29.9 in /  1012.8 hPa West 17.3 mph /  27.8 km/h 17.3 mph /  27.8 km/h 60 % 0 in /  0.0 mm
14:45 64.4 °F /  18.0 °C 49.3 °F /  9.6 °C 29.9 in /  1012.8 hPa West 19.6 mph /  31.5 km/h 19.6 mph /  31.5 km/h 58 % 0 in /  0.0 mm
14:50 64.9 °F /  18.3 °C 48.9 °F /  9.4 °C 29.9 in /  1012.8 hPa WSW 15 mph /  24.1 km/h 15 mph /  24.1 km/h 56 % 0 in /  0.0 mm
14:55 65.3 °F /  18.5 °C 49.3 °F /  9.6 °C 29.9 in /  1012.4 hPa West 13 mph /  20.9 km/h 13 mph /  20.9 km/h 56 % 0 in /  0.0 mm
14:58 65.5 °F /  18.6 °C 49.5 °F /  9.7 °C 29.9 in /  1012.4 hPa SW 11.5 mph /  18.5 km/h 11.5 mph /  18.5 km/h 56 % 0 in /  0.0 mm
14:59 65.7 °F /  18.7 °C 49.5 °F /  9.7 °C 29.9 in /  1012.4 hPa West 11.5 mph /  18.5 km/h 11.5 mph /  18.5 km/h 56 % 0 in /  0.0 mm
15:04 65.7 °F /  18.7 °C 49.1 °F /  9.5 °C 29.9 in /  1012.4 hPa NW 17.3 mph /  27.8 km/h 17.3 mph /  27.8 km/h 55 % 0 in /  0.0 mm
15:08 65.7 °F /  18.7 °C 48.9 °F /  9.4 °C 29.9 in /  1012.4 hPa West 11.5 mph /  18.5 km/h 11.5 mph /  18.5 km/h 55 % 0 in /  0.0 mm
15:09 65.7 °F /  18.7 °C 48.9 °F /  9.4 °C 29.9 in /  1012.4 hPa West 12.7 mph /  20.4 km/h 12.7 mph /  20.4 km/h 55 % 0 in /  0.0 mm
15:15 65.3 °F /  18.5 °C 48.7 °F /  9.3 °C 29.9 in /  1012.1 hPa West 12 mph /  19.3 km/h 16 mph /  25.7 km/h 55 % 0 in /  0.0 mm
15:16 65.1 °F /  18.4 °C 48.6 °F /  9.2 °C 29.9 in /  1012.4 hPa WSW 21.9 mph /  35.2 km/h 21.9 mph /  35.2 km/h 55 % 0 in /  0.0 mm
15:22 64.9 °F /  18.3 °C 48.7 °F /  9.3 °C 29.9 in /  1012.1 hPa West 13.8 mph /  22.2 km/h 13.8 mph /  22.2 km/h 56 % 0 in /  0.0 mm
15:27 64.9 °F /  18.3 °C 48.4 °F /  9.1 °C 29.9 in /  1012.1 hPa West 11.5 mph /  18.5 km/h 11.5 mph /  18.5 km/h 55 % 0 in /  0.0 mm
15:32 65.3 °F /  18.5 °C 49.3 °F /  9.6 °C 29.9 in /  1012.1 hPa West 19.6 mph /  31.5 km/h 19.6 mph /  31.5 km/h 56 % 0 in /  0.0 mm
15:34 65.1 °F /  18.4 °C 50 °F /  10.0 °C 29.9 in /  1012.1 hPa WSW 19.6 mph /  31.5 km/h 19.6 mph /  31.5 km/h 58 % 0 in /  0.0 mm
15:39 64 °F /  17.8 °C 49.8 °F /  9.9 °C 29.9 in /  1012.1 hPa WSW 19.6 mph /  31.5 km/h 19.6 mph /  31.5 km/h 60 % 0 in /  0.0 mm
15:40 64 °F /  17.8 °C 50.4 °F /  10.2 °C 29.9 in /  1012.1 hPa WSW 16.1 mph /  25.9 km/h 16.1 mph /  25.9 km/h 61 % 0 in /  0.0 mm
15:46 63.3 °F /  17.4 °C 51.8 °F /  11.0 °C 29.9 in /  1012.1 hPa West 20.7 mph /  33.3 km/h 20.7 mph /  33.3 km/h 66 % 0 in /  0.0 mm
15:51 62.4 °F /  16.9 °C 52.5 °F /  11.4 °C 29.9 in /  1012.1 hPa WSW 19 mph /  30.6 km/h 19 mph /  30.6 km/h 70 % 0 in /  0.0 mm
15:55 62.2 °F /  16.8 °C 52.7 °F /  11.5 °C 29.9 in /  1012.4 hPa WSW 24 mph /  38.6 km/h 24 mph /  38.6 km/h 71 % 0 in /  0.0 mm
16:00 61.9 °F /  16.6 °C 53.1 °F /  11.7 °C 29.9 in /  1012.1 hPa WSW 23 mph /  37.0 km/h 23 mph /  37.0 km/h 73 % 0 in /  0.0 mm
16:03 61.7 °F /  16.5 °C 53.2 °F /  11.8 °C 29.9 in /  1012.1 hPa WSW 20.7 mph /  33.3 km/h 20.7 mph /  33.3 km/h 74 % 0 in /  0.0 mm
16:08 61.3 °F /  16.3 °C 52.9 °F /  11.6 °C 29.9 in /  1012.1 hPa WSW 23 mph /  37.0 km/h 23 mph /  37.0 km/h 74 % 0 in /  0.0 mm
16:13 61.3 °F /  16.3 °C 53.1 °F /  11.7 °C 29.9 in /  1012.1 hPa SW 24.2 mph /  38.9 km/h 24.2 mph /  38.9 km/h 74 % 0 in /  0.0 mm
16:18 61.3 °F /  16.3 °C 53.1 °F /  11.7 °C 29.9 in /  1012.1 hPa WSW 26.5 mph /  42.6 km/h 26.5 mph /  42.6 km/h 74 % 0 in /  0.0 mm
16:23 61.2 °F /  16.2 °C 52.9 °F /  11.6 °C 29.9 in /  1012.1 hPa WSW 25.3 mph /  40.7 km/h 25.3 mph /  40.7 km/h 74 % 0 in /  0.0 mm
16:24 61.2 °F /  16.2 °C 53.2 °F /  11.8 °C 29.9 in /  1012.1 hPa West 21.9 mph /  35.2 km/h 21.9 mph /  35.2 km/h 75 % 0 in /  0.0 mm
16:29 61 °F /  16.1 °C 53.1 °F /  11.7 °C 29.9 in /  1012.1 hPa West 25.3 mph /  40.7 km/h 25.3 mph /  40.7 km/h 75 % 0 in /  0.0 mm
16:35 61 °F /  16.1 °C 53.1 °F /  11.7 °C 29.9 in /  1011.7 hPa WSW 17 mph /  27.4 km/h 29 mph /  46.7 km/h 75 % 0 in /  0.0 mm
16:40 61 °F /  16.1 °C 53.1 °F /  11.7 °C 29.9 in /  1011.7 hPa WSW 20.7 mph /  33.3 km/h 20.7 mph /  33.3 km/h 75 % 0 in /  0.0 mm
16:45 61.2 °F /  16.2 °C 53.1 °F /  11.7 °C 29.9 in /  1011.7 hPa WSW 18.4 mph /  29.6 km/h 18.4 mph /  29.6 km/h 75 % 0 in /  0.0 mm
16:47 61.2 °F /  16.2 °C 53.1 °F /  11.7 °C 29.9 in /  1011.7 hPa SW 18.4 mph /  29.6 km/h 18.4 mph /  29.6 km/h 75 % 0 in /  0.0 mm
16:48 61.2 °F /  16.2 °C 53.1 °F /  11.7 °C 29.9 in /  1011.7 hPa WSW 24.2 mph /  38.9 km/h 24.2 mph /  38.9 km/h 75 % 0 in /  0.0 mm
16:54 61.2 °F /  16.2 °C 53.1 °F /  11.7 °C 29.9 in /  1011.7 hPa West 18.4 mph /  29.6 km/h 18.4 mph /  29.6 km/h 75 % 0 in /  0.0 mm
16:59 61 °F /  16.1 °C 53.1 °F /  11.7 °C 29.9 in /  1011.7 hPa WSW 20.7 mph /  33.3 km/h 20.7 mph /  33.3 km/h 75 % 0 in /  0.0 mm
17:01 61 °F /  16.1 °C 53.1 °F /  11.7 °C 29.9 in /  1011.7 hPa WSW 19.6 mph /  31.5 km/h 19.6 mph /  31.5 km/h 75 % 0 in /  0.0 mm
17:06 61.2 °F /  16.2 °C 53.1 °F /  11.7 °C 29.9 in /  1011.4 hPa West 21 mph /  33.8 km/h 21 mph /  33.8 km/h 75 % 0 in /  0.0 mm
17:11 61.2 °F /  16.2 °C 52.9 °F /  11.6 °C 29.9 in /  1011.4 hPa West 21 mph /  33.8 km/h 21 mph /  33.8 km/h 74 % 0 in /  0.0 mm
17:16 61.5 °F /  16.4 °C 52.9 °F /  11.6 °C 29.9 in /  1011.7 hPa West 19.6 mph /  31.5 km/h 19.6 mph /  31.5 km/h 73 % 0 in /  0.0 mm
17:21 61.5 °F /  16.4 °C 52.9 °F /  11.6 °C 29.9 in /  1011.4 hPa WSW 19.6 mph /  31.5 km/h 19.6 mph /  31.5 km/h 73 % 0 in /  0.0 mm
17:27 61.3 °F /  16.3 °C 52.5 °F /  11.4 °C 29.9 in /  1011.4 hPa West 17.3 mph /  27.8 km/h 17.3 mph /  27.8 km/h 73 % 0 in /  0.0 mm
17:28 61.3 °F /  16.3 °C 52.5 °F /  11.4 °C 29.9 in /  1011.4 hPa WSW 15 mph /  24.1 km/h 15 mph /  24.1 km/h 73 % 0 in /  0.0 mm
17:34 61.2 °F /  16.2 °C 52.5 °F /  11.4 °C 29.9 in /  1011.4 hPa West 17.3 mph /  27.8 km/h 17.3 mph /  27.8 km/h 73 % 0 in /  0.0 mm
17:36 61.2 °F /  16.2 °C 52.5 °F /  11.4 °C 29.9 in /  1011.4 hPa West 13.8 mph /  22.2 km/h 13.8 mph /  22.2 km/h 73 % 0 in /  0.0 mm
17:41 61.2 °F /  16.2 °C 52 °F /  11.1 °C 29.9 in /  1011.4 hPa WSW 19.6 mph /  31.5 km/h 19.6 mph /  31.5 km/h 72 % 0 in /  0.0 mm
17:43 61.2 °F /  16.2 °C 52 °F /  11.1 °C 29.9 in /  1011.4 hPa West 13.8 mph /  22.2 km/h 13.8 mph /  22.2 km/h 72 % 0 in /  0.0 mm
17:48 61.2 °F /  16.2 °C 51.6 °F /  10.9 °C 29.9 in /  1011.4 hPa West 19.6 mph /  31.5 km/h 19.6 mph /  31.5 km/h 71 % 0 in /  0.0 mm
17:52 61.2 °F /  16.2 °C 51.6 °F /  10.9 °C 29.9 in /  1011.1 hPa West 16.1 mph /  25.9 km/h 16.1 mph /  25.9 km/h 71 % 0 in /  0.0 mm
17:54 61.2 °F /  16.2 °C 51.6 °F /  10.9 °C 29.9 in /  1011.4 hPa WSW 20.7 mph /  33.3 km/h 20.7 mph /  33.3 km/h 71 % 0 in /  0.0 mm
17:59 61 °F /  16.1 °C 51.4 °F /  10.8 °C 29.9 in /  1011.1 hPa WNW 17.3 mph /  27.8 km/h 17.3 mph /  27.8 km/h 71 % 0 in /  0.0 mm
18:01 61 °F /  16.1 °C 51.4 °F /  10.8 °C 29.9 in /  1011.1 hPa West 15 mph /  24.1 km/h 15 mph /  24.1 km/h 71 % 0 in /  0.0 mm
18:05 61 °F /  16.1 °C 51.1 °F /  10.6 °C 29.9 in /  1011.1 hPa WSW 13.8 mph /  22.2 km/h 13.8 mph /  22.2 km/h 70 % 0 in /  0.0 mm
18:10 61 °F /  16.1 °C 51.1 °F /  10.6 °C 29.9 in /  1011.1 hPa West 8.1 mph /  13.0 km/h 8.1 mph /  13.0 km/h 70 % 0 in /  0.0 mm
18:12 61 °F /  16.1 °C 51.1 °F /  10.6 °C 29.9 in /  1011.1 hPa West 11.5 mph /  18.5 km/h 11.5 mph /  18.5 km/h 70 % 0 in /  0.0 mm
18:18 60.8 °F /  16.0 °C 51.1 °F /  10.6 °C 29.9 in /  1011.1 hPa WSW 7 mph /  11.3 km/h 7 mph /  11.3 km/h 70 % 0 in /  0.0 mm
18:23 60.6 °F /  15.9 °C 51.3 °F /  10.7 °C 29.9 in /  1011.1 hPa WSW 15 mph /  24.1 km/h 15 mph /  24.1 km/h 71 % 0 in /  0.0 mm
18:27 60.4 °F /  15.8 °C 51.1 °F /  10.6 °C 29.9 in /  1011.1 hPa West 9.2 mph /  14.8 km/h 9.2 mph /  14.8 km/h 71 % 0 in /  0.0 mm
18:32 60.4 °F /  15.8 °C 51.1 °F /  10.6 °C 29.9 in /  1011.1 hPa West 11.5 mph /  18.5 km/h 11.5 mph /  18.5 km/h 71 % 0 in /  0.0 mm
18:37 60.4 °F /  15.8 °C 51.1 °F /  10.6 °C 29.8 in /  1010.7 hPa West 13.8 mph /  22.2 km/h 13.8 mph /  22.2 km/h 71 % 0 in /  0.0 mm
18:40 60.4 °F /  15.8 °C 50.9 °F /  10.5 °C 29.8 in /  1010.7 hPa West 6 mph /  9.7 km/h 14 mph /  22.5 km/h 71 % 0 in /  0.0 mm
18:45 60.3 °F /  15.7 °C 50.7 °F /  10.4 °C 29.8 in /  1010.7 hPa West 13.8 mph /  22.2 km/h 13.8 mph /  22.2 km/h 71 % 0 in /  0.0 mm
18:55 60.3 °F /  15.7 °C 50.7 °F /  10.4 °C 29.8 in /  1010.4 hPa West 16.1 mph /  25.9 km/h 16.1 mph /  25.9 km/h 71 % 0 in /  0.0 mm
18:58 60.3 °F /  15.7 °C 50.7 °F /  10.4 °C 29.8 in /  1010.4 hPa West 13.8 mph /  22.2 km/h 13.8 mph /  22.2 km/h 71 % 0 in /  0.0 mm
19:03 60.3 °F /  15.7 °C 50.7 °F /  10.4 °C 29.8 in /  1010.7 hPa WSW 13.8 mph /  22.2 km/h 13.8 mph /  22.2 km/h 71 % 0 in /  0.0 mm
19:04 60.3 °F /  15.7 °C 50.7 °F /  10.4 °C 29.8 in /  1010.4 hPa West 13.8 mph /  22.2 km/h 13.8 mph /  22.2 km/h 71 % 0 in /  0.0 mm
19:09 60.3 °F /  15.7 °C 51.4 °F /  10.8 °C 29.8 in /  1010.4 hPa WSW 17.3 mph /  27.8 km/h 17.3 mph /  27.8 km/h 73 % 0 in /  0.0 mm
19:12 60.1 °F /  15.6 °C 51.4 °F /  10.8 °C 29.8 in /  1010.7 hPa WSW 19.6 mph /  31.5 km/h 19.6 mph /  31.5 km/h 73 % 0 in /  0.0 mm
19:13 60.1 °F /  15.6 °C 51.8 °F /  11.0 °C 29.8 in /  1010.7 hPa WSW 19.6 mph /  31.5 km/h 19.6 mph /  31.5 km/h 74 % 0 in /  0.0 mm
19:18 60.1 °F /  15.6 °C 51.3 °F /  10.7 °C 29.8 in /  1010.7 hPa WNW 26.5 mph /  42.6 km/h 26.5 mph /  42.6 km/h 73 % 0 in /  0.0 mm
19:19 60.1 °F /  15.6 °C 51.3 °F /  10.7 °C 29.8 in /  1010.4 hPa West 23 mph /  37.0 km/h 23 mph /  37.0 km/h 73 % 0 in /  0.0 mm
19:20 60.1 °F /  15.6 °C 51.3 °F /  10.7 °C 29.8 in /  1010.4 hPa WSW 19 mph /  30.6 km/h 19 mph /  30.6 km/h 73 % 0 in /  0.0 mm
19:25 60.1 °F /  15.6 °C 51.3 °F /  10.7 °C 29.8 in /  1010.4 hPa West 11.5 mph /  18.5 km/h 11.5 mph /  18.5 km/h 73 % 0 in /  0.0 mm
19:30 60.1 °F /  15.6 °C 51.3 °F /  10.7 °C 29.8 in /  1010.4 hPa WSW 13.8 mph /  22.2 km/h 13.8 mph /  22.2 km/h 73 % 0 in /  0.0 mm
19:32 60.1 °F /  15.6 °C 51.3 °F /  10.7 °C 29.8 in /  1010.4 hPa WSW 16.1 mph /  25.9 km/h 16.1 mph /  25.9 km/h 73 % 0 in /  0.0 mm
19:37 59.9 °F /  15.5 °C 51.3 °F /  10.7 °C 29.8 in /  1010.4 hPa WSW 15 mph /  24.1 km/h 15 mph /  24.1 km/h 73 % 0 in /  0.0 mm
19:38 59.9 °F /  15.5 °C 51.3 °F /  10.7 °C 29.8 in /  1010.4 hPa West 13.8 mph /  22.2 km/h 13.8 mph /  22.2 km/h 73 % 0 in /  0.0 mm
19:43 59.7 °F /  15.4 °C 51.4 °F /  10.8 °C 29.8 in /  1010.4 hPa West 11.5 mph /  18.5 km/h 11.5 mph /  18.5 km/h 74 % 0 in /  0.0 mm
19:44 59.7 °F /  15.4 °C 51.4 °F /  10.8 °C 29.8 in /  1010.4 hPa West 12.7 mph /  20.4 km/h 12.7 mph /  20.4 km/h 74 % 0 in /  0.0 mm
19:49 59.5 °F /  15.3 °C 51.3 °F /  10.7 °C 29.8 in /  1010.4 hPa West 12.7 mph /  20.4 km/h 12.7 mph /  20.4 km/h 74 % 0 in /  0.0 mm
19:50 59.5 °F /  15.3 °C 51.3 °F /  10.7 °C 29.8 in /  1010.4 hPa West 12.7 mph /  20.4 km/h 12.7 mph /  20.4 km/h 74 % 0 in /  0.0 mm
19:55 59.5 °F /  15.3 °C 51.3 °F /  10.7 °C 29.8 in /  1010.4 hPa WSW 11 mph /  17.7 km/h 11 mph /  17.7 km/h 74 % 0 in /  0.0 mm
19:59 59.5 °F /  15.3 °C 51.3 °F /  10.7 °C 29.8 in /  1010.0 hPa West 15 mph /  24.1 km/h 15 mph /  24.1 km/h 74 % 0 in /  0.0 mm
20:04 59.5 °F /  15.3 °C 51.3 °F /  10.7 °C 29.8 in /  1010.0 hPa West 10.4 mph /  16.7 km/h 10.4 mph /  16.7 km/h 74 % 0 in /  0.0 mm
20:09 59.5 °F /  15.3 °C 51.3 °F /  10.7 °C 29.8 in /  1010.0 hPa WSW 13.8 mph /  22.2 km/h 13.8 mph /  22.2 km/h 74 % 0 in /  0.0 mm
20:14 59.5 °F /  15.3 °C 51.3 °F /  10.7 °C 29.8 in /  1010.0 hPa West 11.5 mph /  18.5 km/h 11.5 mph /  18.5 km/h 74 % 0 in /  0.0 mm
20:15 59.5 °F /  15.3 °C 51.3 °F /  10.7 °C 29.8 in /  1010.0 hPa WSW 11 mph /  17.7 km/h 11 mph /  17.7 km/h 74 % 0 in /  0.0 mm
20:16 59.5 °F /  15.3 °C 51.3 °F /  10.7 °C 29.8 in /  1010.0 hPa WSW 12 mph /  19.3 km/h 12 mph /  19.3 km/h 74 % 0 in /  0.0 mm
20:21 59.5 °F /  15.3 °C 51.3 °F /  10.7 °C 29.8 in /  1010.0 hPa West 11.5 mph /  18.5 km/h 11.5 mph /  18.5 km/h 74 % 0 in /  0.0 mm
20:26 59.5 °F /  15.3 °C 51.3 °F /  10.7 °C 29.8 in /  1010.0 hPa West 11.5 mph /  18.5 km/h 11.5 mph /  18.5 km/h 74 % 0 in /  0.0 mm
20:27 59.5 °F /  15.3 °C 51.3 °F /  10.7 °C 29.8 in /  1010.0 hPa WSW 11.5 mph /  18.5 km/h 11.5 mph /  18.5 km/h 74 % 0 in /  0.0 mm
20:31 59.5 °F /  15.3 °C 51.6 °F /  10.9 °C 29.8 in /  1010.0 hPa WSW 8.1 mph /  13.0 km/h 8.1 mph /  13.0 km/h 75 % 0 in /  0.0 mm
20:33 59.5 °F /  15.3 °C 51.6 °F /  10.9 °C 29.8 in /  1010.0 hPa West 9.2 mph /  14.8 km/h 9.2 mph /  14.8 km/h 75 % 0 in /  0.0 mm
20:38 59.5 °F /  15.3 °C 51.6 °F /  10.9 °C 29.8 in /  1010.0 hPa West 11.5 mph /  18.5 km/h 11.5 mph /  18.5 km/h 75 % 0 in /  0.0 mm
20:39 59.5 °F /  15.3 °C 51.6 °F /  10.9 °C 29.8 in /  1009.7 hPa WSW 12 mph /  19.3 km/h 12 mph /  19.3 km/h 75 % 0 in /  0.0 mm
20:44 59.5 °F /  15.3 °C 51.6 °F /  10.9 °C 29.8 in /  1009.7 hPa WSW 11.5 mph /  18.5 km/h 11.5 mph /  18.5 km/h 75 % 0 in /  0.0 mm
20:48 59.5 °F /  15.3 °C 51.6 °F /  10.9 °C 29.8 in /  1009.7 hPa WSW 11.5 mph /  18.5 km/h 11.5 mph /  18.5 km/h 75 % 0 in /  0.0 mm
20:53 59.5 °F /  15.3 °C 52 °F /  11.1 °C 29.8 in /  1009.7 hPa WSW 11.5 mph /  18.5 km/h 11.5 mph /  18.5 km/h 76 % 0 in /  0.0 mm
20:58 59.5 °F /  15.3 °C 52 °F /  11.1 °C 29.8 in /  1009.4 hPa West 11.5 mph /  18.5 km/h 11.5 mph /  18.5 km/h 76 % 0 in /  0.0 mm
20:59 59.5 °F /  15.3 °C 52 °F /  11.1 °C 29.8 in /  1009.4 hPa WSW 11.5 mph /  18.5 km/h 11.5 mph /  18.5 km/h 76 % 0 in /  0.0 mm
21:04 59.5 °F /  15.3 °C 52 °F /  11.1 °C 29.8 in /  1009.7 hPa WSW 11.5 mph /  18.5 km/h 11.5 mph /  18.5 km/h 76 % 0 in /  0.0 mm
21:06 59.5 °F /  15.3 °C 52 °F /  11.1 °C 29.8 in /  1009.4 hPa SW 10.4 mph /  16.7 km/h 10.4 mph /  16.7 km/h 76 % 0 in /  0.0 mm
21:12 59.5 °F /  15.3 °C 52 °F /  11.1 °C 29.8 in /  1009.4 hPa WSW 8.1 mph /  13.0 km/h 8.1 mph /  13.0 km/h 76 % 0 in /  0.0 mm
21:15 59.4 °F /  15.2 °C 52.2 °F /  11.2 °C 29.8 in /  1009.4 hPa West 7 mph /  11.3 km/h 9 mph /  14.5 km/h 77 % 0 in /  0.0 mm
21:17 59.4 °F /  15.2 °C 52.2 °F /  11.2 °C 29.8 in /  1009.4 hPa West 5.8 mph /  9.3 km/h 5.8 mph /  9.3 km/h 77 % 0 in /  0.0 mm
21:20 59.4 °F /  15.2 °C 52.2 °F /  11.2 °C 29.8 in /  1009.4 hPa West 8.1 mph /  13.0 km/h 8.1 mph /  13.0 km/h 77 % 0 in /  0.0 mm
21:23 59.4 °F /  15.2 °C 52.2 °F /  11.2 °C 29.8 in /  1009.4 hPa West 8.1 mph /  13.0 km/h 8.1 mph /  13.0 km/h 77 % 0 in /  0.0 mm
21:27 59.4 °F /  15.2 °C 52.2 °F /  11.2 °C 29.8 in /  1009.4 hPa WSW 9.2 mph /  14.8 km/h 9.2 mph /  14.8 km/h 77 % 0 in /  0.0 mm
21:33 59.4 °F /  15.2 °C 52.2 °F /  11.2 °C 29.8 in /  1009.4 hPa WSW 8.1 mph /  13.0 km/h 8.1 mph /  13.0 km/h 77 % 0 in /  0.0 mm
21:35 59.4 °F /  15.2 °C 52.5 °F /  11.4 °C 29.8 in /  1009.4 hPa WSW 9.2 mph /  14.8 km/h 9.2 mph /  14.8 km/h 78 % 0 in /  0.0 mm
21:40 59.5 °F /  15.3 °C 53.2 °F /  11.8 °C 29.8 in /  1009.4 hPa WSW 8 mph /  12.9 km/h 8 mph /  12.9 km/h 80 % 0 in /  0.0 mm
21:45 59.4 °F /  15.2 °C 53.2 °F /  11.8 °C 29.8 in /  1009.0 hPa WSW 11.5 mph /  18.5 km/h 11.5 mph /  18.5 km/h 80 % 0 in /  0.0 mm
21:50 59.2 °F /  15.1 °C 53.1 °F /  11.7 °C 29.8 in /  1009.0 hPa WSW 12.7 mph /  20.4 km/h 12.7 mph /  20.4 km/h 80 % 0 in /  0.0 mm
21:53 59.2 °F /  15.1 °C 53.4 °F /  11.9 °C 29.8 in /  1009.0 hPa West 16.1 mph /  25.9 km/h 16.1 mph /  25.9 km/h 81 % 0 in /  0.0 mm
21:58 59.2 °F /  15.1 °C 53.4 °F /  11.9 °C 29.8 in /  1009.0 hPa WSW 17.3 mph /  27.8 km/h 17.3 mph /  27.8 km/h 81 % 0 in /  0.0 mm
21:59 59.2 °F /  15.1 °C 53.4 °F /  11.9 °C 29.8 in /  1009.0 hPa WSW 16.1 mph /  25.9 km/h 16.1 mph /  25.9 km/h 81 % 0 in /  0.0 mm
22:01 59.2 °F /  15.1 °C 53.2 °F /  11.8 °C 29.8 in /  1009.4 hPa WSW 19.6 mph /  31.5 km/h 19.6 mph /  31.5 km/h 81 % 0 in /  0.0 mm
22:06 59.2 °F /  15.1 °C 52.9 °F /  11.6 °C 29.8 in /  1009.0 hPa WSW 15 mph /  24.1 km/h 15 mph /  24.1 km/h 80 % 0 in /  0.0 mm
22:09 59.2 °F /  15.1 °C 52.9 °F /  11.6 °C 29.8 in /  1009.0 hPa SW 16.1 mph /  25.9 km/h 16.1 mph /  25.9 km/h 80 % 0 in /  0.0 mm
22:10 59.2 °F /  15.1 °C 53.2 °F /  11.8 °C 29.8 in /  1009.0 hPa West 16.1 mph /  25.9 km/h 16.1 mph /  25.9 km/h 81 % 0 in /  0.0 mm
22:14 59.2 °F /  15.1 °C 53.4 °F /  11.9 °C 29.8 in /  1008.7 hPa WSW 13.8 mph /  22.2 km/h 13.8 mph /  22.2 km/h 81 % 0 in /  0.0 mm
22:19 59.2 °F /  15.1 °C 53.2 °F /  11.8 °C 29.8 in /  1008.7 hPa WSW 15 mph /  24.1 km/h 15 mph /  24.1 km/h 81 % 0 in /  0.0 mm
22:21 59.2 °F /  15.1 °C 53.2 °F /  11.8 °C 29.8 in /  1008.7 hPa WSW 13.8 mph /  22.2 km/h 13.8 mph /  22.2 km/h 81 % 0 in /  0.0 mm
22:22 59.2 °F /  15.1 °C 53.2 °F /  11.8 °C 29.8 in /  1008.7 hPa WSW 13.8 mph /  22.2 km/h 13.8 mph /  22.2 km/h 81 % 0 in /  0.0 mm
22:27 59 °F /  15.0 °C 53.2 °F /  11.8 °C 29.8 in /  1008.7 hPa WSW 13.8 mph /  22.2 km/h 13.8 mph /  22.2 km/h 81 % 0 in /  0.0 mm
22:30 59 °F /  15.0 °C 53.2 °F /  11.8 °C 29.8 in /  1008.4 hPa WSW 15 mph /  24.1 km/h 15 mph /  24.1 km/h 81 % 0 in /  0.0 mm
22:31 59 °F /  15.0 °C 53.2 °F /  11.8 °C 29.8 in /  1008.4 hPa WSW 15 mph /  24.1 km/h 15 mph /  24.1 km/h 81 % 0 in /  0.0 mm
22:36 58.8 °F /  14.9 °C 53.1 °F /  11.7 °C 29.8 in /  1008.4 hPa WSW 11.5 mph /  18.5 km/h 11.5 mph /  18.5 km/h 81 % 0 in /  0.0 mm
22:37 58.8 °F /  14.9 °C 53.1 °F /  11.7 °C 29.8 in /  1008.4 hPa West 10.4 mph /  16.7 km/h 10.4 mph /  16.7 km/h 81 % 0 in /  0.0 mm
22:42 58.8 °F /  14.9 °C 53.1 °F /  11.7 °C 29.8 in /  1008.4 hPa WSW 11.5 mph /  18.5 km/h 11.5 mph /  18.5 km/h 81 % 0 in /  0.0 mm
22:46 58.8 °F /  14.9 °C 52.7 °F /  11.5 °C 29.8 in /  1008.4 hPa WSW 15 mph /  24.1 km/h 15 mph /  24.1 km/h 80 % 0 in /  0.0 mm
22:49 58.8 °F /  14.9 °C 52.7 °F /  11.5 °C 29.8 in /  1008.4 hPa WSW 13.8 mph /  22.2 km/h 13.8 mph /  22.2 km/h 80 % 0 in /  0.0 mm
22:54 58.8 °F /  14.9 °C 53.1 °F /  11.7 °C 29.8 in /  1008.4 hPa West 13.8 mph /  22.2 km/h 13.8 mph /  22.2 km/h 81 % 0 in /  0.0 mm
22:55 59 °F /  15.0 °C 53.2 °F /  11.8 °C 29.8 in /  1008.4 hPa WSW 13.8 mph /  22.2 km/h 13.8 mph /  22.2 km/h 81 % 0 in /  0.0 mm
22:59 59 °F /  15.0 °C 53.2 °F /  11.8 °C 29.8 in /  1008.0 hPa West 13.8 mph /  22.2 km/h 13.8 mph /  22.2 km/h 81 % 0 in /  0.0 mm
23:02 59 °F /  15.0 °C 53.2 °F /  11.8 °C 29.8 in /  1008.0 hPa West 13.8 mph /  22.2 km/h 13.8 mph /  22.2 km/h 81 % 0 in /  0.0 mm
23:07 58.8 °F /  14.9 °C 53.1 °F /  11.7 °C 29.8 in /  1008.0 hPa WSW 17 mph /  27.4 km/h 17 mph /  27.4 km/h 81 % 0 in /  0.0 mm
23:12 58.8 °F /  14.9 °C 53.1 °F /  11.7 °C 29.8 in /  1008.0 hPa West 16.1 mph /  25.9 km/h 16.1 mph /  25.9 km/h 81 % 0 in /  0.0 mm
23:17 58.8 °F /  14.9 °C 53.1 °F /  11.7 °C 29.8 in /  1008.0 hPa WSW 13.8 mph /  22.2 km/h 13.8 mph /  22.2 km/h 81 % 0 in /  0.0 mm
23:18 58.8 °F /  14.9 °C 53.1 °F /  11.7 °C 29.8 in /  1008.0 hPa West 12 mph /  19.3 km/h 12 mph /  19.3 km/h 81 % 0 in /  0.0 mm
23:23 58.8 °F /  14.9 °C 53.1 °F /  11.7 °C 29.8 in /  1007.7 hPa WSW 15 mph /  24.1 km/h 15 mph /  24.1 km/h 81 % 0 in /  0.0 mm
23:28 59 °F /  15.0 °C 53.2 °F /  11.8 °C 29.8 in /  1007.7 hPa West 16.1 mph /  25.9 km/h 16.1 mph /  25.9 km/h 81 % 0 in /  0.0 mm
23:31 58.8 °F /  14.9 °C 52.7 °F /  11.5 °C 29.8 in /  1007.7 hPa WNW 16.1 mph /  25.9 km/h 16.1 mph /  25.9 km/h 80 % 0 in /  0.0 mm
23:35 58.8 °F /  14.9 °C 52.7 °F /  11.5 °C 29.8 in /  1007.7 hPa WSW 17 mph /  27.4 km/h 17 mph /  27.4 km/h 80 % 0 in /  0.0 mm
23:37 58.8 °F /  14.9 °C 52.7 °F /  11.5 °C 29.8 in /  1007.7 hPa WSW 19 mph /  30.6 km/h 19 mph /  30.6 km/h 80 % 0 in /  0.0 mm
23:41 58.8 °F /  14.9 °C 53.1 °F /  11.7 °C 29.7 in /  1007.3 hPa WSW 19 mph /  30.6 km/h 19 mph /  30.6 km/h 81 % 0 in /  0.0 mm
23:50 58.8 °F /  14.9 °C 53.1 °F /  11.7 °C 29.7 in /  1007.3 hPa WSW 14 mph /  22.5 km/h 20 mph /  32.2 km/h 81 % 0 in /  0.0 mm
23:55 58.8 °F /  14.9 °C 52.7 °F /  11.5 °C 29.7 in /  1007.3 hPa West 19.6 mph /  31.5 km/h 19.6 mph /  31.5 km/h 80 % 0 in /  0.0 mm
23:56 58.8 °F /  14.9 °C 52.7 °F /  11.5 °C 29.7 in /  1007.3 hPa West 19.6 mph /  31.5 km/h 19.6 mph /  31.5 km/h 80 % 0 in /  0.0 mm
Puerto Banus, Marbella
Elogios de Weather Underground - 2.25 mb

Guión original por  Jim McMurry - jmcmurry@mwt.net Adaptado para la plantilla por  Wim van der Kuil - Leuven-Template.eu

Usted encontrará nuestra información del tiempo también en:

Weather Underground

Iberian Peninsula Weather Network